sensor_id;sensor_type;location;lat;lon;timestamp;P1;durP1;ratioP1;P2;durP2;ratioP2
43793;SDS011;29414;44.798;20.366;2023-02-04T00:02:33;7.40;;;5.10;;
43793;SDS011;29414;44.798;20.366;2023-02-04T00:06:33;9.47;;;6.40;;
43793;SDS011;29414;44.798;20.366;2023-02-04T00:10:33;6.85;;;4.45;;
43793;SDS011;29414;44.798;20.366;2023-02-04T00:14:34;6.27;;;4.70;;
43793;SDS011;29414;44.798;20.366;2023-02-04T00:18:35;9.50;;;5.27;;
43793;SDS011;29414;44.798;20.366;2023-02-04T00:22:35;7.20;;;4.95;;
43793;SDS011;29414;44.798;20.366;2023-02-04T00:26:35;7.17;;;4.37;;
43793;SDS011;29414;44.798;20.366;2023-02-04T00:30:36;6.00;;;4.67;;
43793;SDS011;29414;44.798;20.366;2023-02-04T00:34:36;5.68;;;4.70;;
43793;SDS011;29414;44.798;20.366;2023-02-04T00:38:36;7.67;;;4.83;;
43793;SDS011;29414;44.798;20.366;2023-02-04T00:42:36;9.13;;;4.50;;
43793;SDS011;29414;44.798;20.366;2023-02-04T00:46:37;6.87;;;4.37;;
43793;SDS011;29414;44.798;20.366;2023-02-04T00:50:37;5.30;;;3.65;;
43793;SDS011;29414;44.798;20.366;2023-02-04T00:54:38;5.97;;;4.00;;
43793;SDS011;29414;44.798;20.366;2023-02-04T00:58:38;7.22;;;3.72;;
43793;SDS011;29414;44.798;20.366;2023-02-04T01:02:39;8.07;;;3.47;;
43793;SDS011;29414;44.798;20.366;2023-02-04T01:06:42;5.73;;;2.77;;
43793;SDS011;29414;44.798;20.366;2023-02-04T01:10:42;6.32;;;2.53;;
43793;SDS011;29414;44.798;20.366;2023-02-04T01:14:42;5.57;;;2.90;;
43793;SDS011;29414;44.798;20.366;2023-02-04T01:18:42;7.53;;;2.63;;
43793;SDS011;29414;44.798;20.366;2023-02-04T01:22:43;4.80;;;2.10;;
43793;SDS011;29414;44.798;20.366;2023-02-04T01:26:43;4.95;;;1.40;;
43793;SDS011;29414;44.798;20.366;2023-02-04T01:30:43;3.28;;;1.52;;
43793;SDS011;29414;44.798;20.366;2023-02-04T01:34:43;4.78;;;1.98;;
43793;SDS011;29414;44.798;20.366;2023-02-04T01:38:44;5.30;;;1.92;;
43793;SDS011;29414;44.798;20.366;2023-02-04T01:42:45;4.25;;;2.13;;
43793;SDS011;29414;44.798;20.366;2023-02-04T01:46:45;4.33;;;1.83;;
43793;SDS011;29414;44.798;20.366;2023-02-04T01:50:46;5.20;;;2.10;;
43793;SDS011;29414;44.798;20.366;2023-02-04T01:54:47;3.13;;;1.97;;
43793;SDS011;29414;44.798;20.366;2023-02-04T01:58:47;5.60;;;2.30;;
43793;SDS011;29414;44.798;20.366;2023-02-04T02:02:49;4.20;;;2.00;;
43793;SDS011;29414;44.798;20.366;2023-02-04T02:06:51;3.70;;;1.60;;
43793;SDS011;29414;44.798;20.366;2023-02-04T02:10:52;5.23;;;2.10;;
43793;SDS011;29414;44.798;20.366;2023-02-04T02:14:52;6.43;;;1.93;;
43793;SDS011;29414;44.798;20.366;2023-02-04T02:18:53;4.85;;;1.85;;
43793;SDS011;29414;44.798;20.366;2023-02-04T02:27:12;2.90;;;1.47;;
43793;SDS011;29414;44.798;20.366;2023-02-04T02:31:13;7.60;;;1.80;;
43793;SDS011;29414;44.798;20.366;2023-02-04T02:35:14;3.80;;;1.60;;
43793;SDS011;29414;44.798;20.366;2023-02-04T02:39:14;5.50;;;1.73;;
43793;SDS011;29414;44.798;20.366;2023-02-04T02:43:16;5.07;;;2.10;;
43793;SDS011;29414;44.798;20.366;2023-02-04T02:47:17;4.17;;;2.40;;
43793;SDS011;29414;44.798;20.366;2023-02-04T02:51:18;2.93;;;1.93;;
43793;SDS011;29414;44.798;20.366;2023-02-04T02:55:20;5.20;;;1.40;;
43793;SDS011;29414;44.798;20.366;2023-02-04T02:59:21;2.40;;;0.97;;
43793;SDS011;29414;44.798;20.366;2023-02-04T03:03:23;3.73;;;1.10;;
43793;SDS011;29414;44.798;20.366;2023-02-04T03:07:24;2.60;;;1.10;;
43793;SDS011;29414;44.798;20.366;2023-02-04T03:11:25;3.63;;;1.30;;
43793;SDS011;29414;44.798;20.366;2023-02-04T03:15:29;4.27;;;1.03;;
43793;SDS011;29414;44.798;20.366;2023-02-04T03:19:29;3.10;;;0.80;;
43793;SDS011;29414;44.798;20.366;2023-02-04T03:23:31;2.90;;;0.93;;
43793;SDS011;29414;44.798;20.366;2023-02-04T03:27:32;4.17;;;1.40;;
43793;SDS011;29414;44.798;20.366;2023-02-04T03:31:32;3.87;;;1.40;;
43793;SDS011;29414;44.798;20.366;2023-02-04T03:35:32;2.87;;;1.00;;
43793;SDS011;29414;44.798;20.366;2023-02-04T03:39:32;3.13;;;1.27;;
43793;SDS011;29414;44.798;20.366;2023-02-04T03:43:33;2.63;;;0.80;;
43793;SDS011;29414;44.798;20.366;2023-02-04T03:47:33;2.53;;;1.00;;
43793;SDS011;29414;44.798;20.366;2023-02-04T03:51:33;4.13;;;1.00;;
43793;SDS011;29414;44.798;20.366;2023-02-04T03:55:34;4.03;;;1.40;;
43793;SDS011;29414;44.798;20.366;2023-02-04T03:59:34;2.67;;;1.30;;
43793;SDS011;29414;44.798;20.366;2023-02-04T04:03:35;2.42;;;1.20;;
43793;SDS011;29414;44.798;20.366;2023-02-04T04:07:35;3.67;;;1.13;;
43793;SDS011;29414;44.798;20.366;2023-02-04T04:11:35;5.00;;;1.40;;
43793;SDS011;29414;44.798;20.366;2023-02-04T04:15:35;8.07;;;2.08;;
43793;SDS011;29414;44.798;20.366;2023-02-04T04:19:35;7.70;;;2.33;;
43793;SDS011;29414;44.798;20.366;2023-02-04T04:23:36;3.58;;;1.73;;
43793;SDS011;29414;44.798;20.366;2023-02-04T04:27:36;3.33;;;1.97;;
43793;SDS011;29414;44.798;20.366;2023-02-04T04:31:37;5.18;;;2.05;;
43793;SDS011;29414;44.798;20.366;2023-02-04T04:35:37;6.15;;;1.98;;
43793;SDS011;29414;44.798;20.366;2023-02-04T04:39:37;5.55;;;2.40;;
43793;SDS011;29414;44.798;20.366;2023-02-04T04:43:37;2.80;;;1.80;;
43793;SDS011;29414;44.798;20.366;2023-02-04T04:47:37;3.90;;;1.88;;
43793;SDS011;29414;44.798;20.366;2023-02-04T04:51:38;4.25;;;1.50;;
43793;SDS011;29414;44.798;20.366;2023-02-04T04:55:38;4.93;;;1.45;;
43793;SDS011;29414;44.798;20.366;2023-02-04T04:59:38;6.03;;;1.70;;
43793;SDS011;29414;44.798;20.366;2023-02-04T05:03:38;5.65;;;1.90;;
43793;SDS011;29414;44.798;20.366;2023-02-04T05:07:39;5.50;;;1.80;;
43793;SDS011;29414;44.798;20.366;2023-02-04T05:11:39;3.67;;;1.80;;
43793;SDS011;29414;44.798;20.366;2023-02-04T05:15:39;5.15;;;2.03;;
43793;SDS011;29414;44.798;20.366;2023-02-04T05:19:39;8.27;;;2.80;;
43793;SDS011;29414;44.798;20.366;2023-02-04T05:23:40;11.00;;;3.10;;
43793;SDS011;29414;44.798;20.366;2023-02-04T05:27:40;6.95;;;2.00;;
43793;SDS011;29414;44.798;20.366;2023-02-04T05:31:40;8.03;;;2.13;;
43793;SDS011;29414;44.798;20.366;2023-02-04T05:35:40;7.22;;;2.47;;
43793;SDS011;29414;44.798;20.366;2023-02-04T05:39:41;5.45;;;2.05;;
43793;SDS011;29414;44.798;20.366;2023-02-04T05:43:41;7.50;;;2.33;;
43793;SDS011;29414;44.798;20.366;2023-02-04T05:47:42;6.83;;;2.10;;
43793;SDS011;29414;44.798;20.366;2023-02-04T05:51:42;5.63;;;2.20;;
43793;SDS011;29414;44.798;20.366;2023-02-04T05:55:42;4.10;;;2.20;;
43793;SDS011;29414;44.798;20.366;2023-02-04T05:59:42;6.38;;;2.60;;
43793;SDS011;29414;44.798;20.366;2023-02-04T06:03:42;7.80;;;3.40;;
43793;SDS011;29414;44.798;20.366;2023-02-04T06:07:43;7.80;;;3.30;;
43793;SDS011;29414;44.798;20.366;2023-02-04T06:11:43;6.40;;;2.78;;
43793;SDS011;29414;44.798;20.366;2023-02-04T06:15:43;8.75;;;2.05;;
43793;SDS011;29414;44.798;20.366;2023-02-04T06:19:43;5.10;;;1.58;;
43793;SDS011;29414;44.798;20.366;2023-02-04T06:23:44;5.78;;;1.88;;
43793;SDS011;29414;44.798;20.366;2023-02-04T06:27:44;5.30;;;1.90;;
43793;SDS011;29414;44.798;20.366;2023-02-04T06:31:44;5.32;;;2.22;;
43793;SDS011;29414;44.798;20.366;2023-02-04T06:35:44;5.22;;;1.73;;
43793;SDS011;29414;44.798;20.366;2023-02-04T06:39:44;5.75;;;1.60;;
43793;SDS011;29414;44.798;20.366;2023-02-04T06:43:45;8.55;;;2.30;;
43793;SDS011;29414;44.798;20.366;2023-02-04T06:47:45;5.10;;;1.90;;
43793;SDS011;29414;44.798;20.366;2023-02-04T06:51:45;6.43;;;1.77;;
43793;SDS011;29414;44.798;20.366;2023-02-04T06:55:47;7.00;;;2.77;;
43793;SDS011;29414;44.798;20.366;2023-02-04T06:59:47;8.57;;;1.92;;
43793;SDS011;29414;44.798;20.366;2023-02-04T07:03:47;5.90;;;2.13;;
43793;SDS011;29414;44.798;20.366;2023-02-04T07:07:48;6.60;;;2.47;;
43793;SDS011;29414;44.798;20.366;2023-02-04T07:11:48;5.18;;;2.35;;
43793;SDS011;29414;44.798;20.366;2023-02-04T07:15:48;7.47;;;2.63;;
43793;SDS011;29414;44.798;20.366;2023-02-04T07:19:48;5.63;;;2.80;;
43793;SDS011;29414;44.798;20.366;2023-02-04T07:23:49;6.43;;;2.90;;
43793;SDS011;29414;44.798;20.366;2023-02-04T07:27:49;6.30;;;2.15;;
43793;SDS011;29414;44.798;20.366;2023-02-04T07:31:49;7.57;;;2.93;;
43793;SDS011;29414;44.798;20.366;2023-02-04T07:35:51;3.33;;;1.93;;
43793;SDS011;29414;44.798;20.366;2023-02-04T07:39:51;3.57;;;1.77;;
43793;SDS011;29414;44.798;20.366;2023-02-04T07:43:52;5.53;;;2.13;;
43793;SDS011;29414;44.798;20.366;2023-02-04T07:47:52;6.03;;;2.25;;
43793;SDS011;29414;44.798;20.366;2023-02-04T07:51:52;5.03;;;1.73;;
43793;SDS011;29414;44.798;20.366;2023-02-04T07:55:52;4.88;;;2.50;;
43793;SDS011;29414;44.798;20.366;2023-02-04T07:59:53;8.07;;;3.28;;
43793;SDS011;29414;44.798;20.366;2023-02-04T08:03:53;6.13;;;3.35;;
43793;SDS011;29414;44.798;20.366;2023-02-04T08:07:53;7.87;;;3.40;;
43793;SDS011;29414;44.798;20.366;2023-02-04T08:11:53;6.93;;;4.03;;
43793;SDS011;29414;44.798;20.366;2023-02-04T08:15:54;5.23;;;3.60;;
43793;SDS011;29414;44.798;20.366;2023-02-04T08:19:54;7.63;;;4.93;;
43793;SDS011;29414;44.798;20.366;2023-02-04T08:23:55;10.67;;;5.30;;
43793;SDS011;29414;44.798;20.366;2023-02-04T08:27:55;11.55;;;6.88;;
43793;SDS011;29414;44.798;20.366;2023-02-04T08:31:56;12.13;;;6.75;;
43793;SDS011;29414;44.798;20.366;2023-02-04T08:35:56;11.70;;;6.15;;
43793;SDS011;29414;44.798;20.366;2023-02-04T08:39:56;10.63;;;6.90;;
43793;SDS011;29414;44.798;20.366;2023-02-04T08:43:56;11.90;;;5.77;;
43793;SDS011;29414;44.798;20.366;2023-02-04T08:47:56;10.18;;;6.00;;
43793;SDS011;29414;44.798;20.366;2023-02-04T08:51:58;11.40;;;8.13;;
43793;SDS011;29414;44.798;20.366;2023-02-04T08:55:58;13.27;;;7.53;;
43793;SDS011;29414;44.798;20.366;2023-02-04T08:59:58;9.15;;;6.85;;
43793;SDS011;29414;44.798;20.366;2023-02-04T09:03:59;10.60;;;6.67;;
43793;SDS011;29414;44.798;20.366;2023-02-04T09:07:59;8.30;;;5.70;;
43793;SDS011;29414;44.798;20.366;2023-02-04T09:11:59;8.27;;;5.60;;
43793;SDS011;29414;44.798;20.366;2023-02-04T09:16:00;13.53;;;6.83;;
43793;SDS011;29414;44.798;20.366;2023-02-04T09:20:01;1.92;;;1.27;;
43793;SDS011;29414;44.798;20.366;2023-02-04T09:24:01;2.10;;;0.85;;
43793;SDS011;29414;44.798;20.366;2023-02-04T09:28:01;3.58;;;0.80;;
43793;SDS011;29414;44.798;20.366;2023-02-04T09:32:01;1.23;;;1.07;;
43793;SDS011;29414;44.798;20.366;2023-02-04T09:36:02;1.87;;;0.60;;
43793;SDS011;29414;44.798;20.366;2023-02-04T09:40:02;1.27;;;0.77;;
43793;SDS011;29414;44.798;20.366;2023-02-04T09:44:03;1.63;;;0.50;;
43793;SDS011;29414;44.798;20.366;2023-02-04T09:48:04;1.53;;;0.67;;
43793;SDS011;29414;44.798;20.366;2023-02-04T09:52:08;2.40;;;1.00;;
43793;SDS011;29414;44.798;20.366;2023-02-04T09:56:09;1.33;;;0.70;;
43793;SDS011;29414;44.798;20.366;2023-02-04T10:00:13;1.53;;;0.53;;
43793;SDS011;29414;44.798;20.366;2023-02-04T10:04:14;1.93;;;0.50;;
43793;SDS011;29414;44.798;20.366;2023-02-04T10:08:15;2.97;;;1.23;;
43793;SDS011;29414;44.798;20.366;2023-02-04T10:12:16;1.60;;;1.17;;
43793;SDS011;29414;44.798;20.366;2023-02-04T10:16:18;2.23;;;0.90;;
43793;SDS011;29414;44.798;20.366;2023-02-04T10:20:20;3.97;;;1.00;;
43793;SDS011;29414;44.798;20.366;2023-02-04T10:24:22;2.93;;;1.57;;
43793;SDS011;29414;44.798;20.366;2023-02-04T10:28:35;1.47;;;0.53;;
43793;SDS011;29414;44.798;20.366;2023-02-04T10:32:35;1.23;;;0.80;;
43793;SDS011;29414;44.798;20.366;2023-02-04T10:36:36;1.93;;;0.97;;
43793;SDS011;29414;44.798;20.366;2023-02-04T10:40:36;1.93;;;0.97;;
43793;SDS011;29414;44.798;20.366;2023-02-04T10:44:37;2.50;;;1.50;;
43793;SDS011;29414;44.798;20.366;2023-02-04T10:48:45;2.57;;;1.53;;
43793;SDS011;29414;44.798;20.366;2023-02-04T10:52:46;2.57;;;1.70;;
43793;SDS011;29414;44.798;20.366;2023-02-04T10:56:48;4.20;;;1.80;;
43793;SDS011;29414;44.798;20.366;2023-02-04T11:00:48;4.80;;;1.98;;
43793;SDS011;29414;44.798;20.366;2023-02-04T11:04:49;3.97;;;2.20;;
43793;SDS011;29414;44.798;20.366;2023-02-04T11:08:49;2.97;;;2.13;;
43793;SDS011;29414;44.798;20.366;2023-02-04T11:16:52;4.50;;;3.50;;
43793;SDS011;29414;44.798;20.366;2023-02-04T11:20:54;3.87;;;3.47;;
43793;SDS011;29414;44.798;20.366;2023-02-04T11:24:55;3.97;;;3.27;;
43793;SDS011;29414;44.798;20.366;2023-02-04T11:33:01;4.73;;;3.53;;
43793;SDS011;29414;44.798;20.366;2023-02-04T11:41:03;6.03;;;4.30;;
43793;SDS011;29414;44.798;20.366;2023-02-04T11:45:13;7.40;;;4.33;;
43793;SDS011;29414;44.798;20.366;2023-02-04T11:49:16;5.77;;;4.33;;
43793;SDS011;29414;44.798;20.366;2023-02-04T11:53:17;4.60;;;4.10;;
43793;SDS011;29414;44.798;20.366;2023-02-04T11:57:17;8.65;;;4.60;;
43793;SDS011;29414;44.798;20.366;2023-02-04T12:01:18;4.28;;;3.13;;
43793;SDS011;29414;44.798;20.366;2023-02-04T12:05:20;4.57;;;4.07;;
43793;SDS011;29414;44.798;20.366;2023-02-04T12:09:24;4.50;;;3.47;;
43793;SDS011;29414;44.798;20.366;2023-02-04T12:13:25;7.90;;;4.63;;
43793;SDS011;29414;44.798;20.366;2023-02-04T12:17:25;11.33;;;5.97;;
43793;SDS011;29414;44.798;20.366;2023-02-04T12:21:26;14.97;;;6.83;;
43793;SDS011;29414;44.798;20.366;2023-02-04T12:25:26;12.57;;;6.95;;
43793;SDS011;29414;44.798;20.366;2023-02-04T12:29:26;6.65;;;4.22;;
43793;SDS011;29414;44.798;20.366;2023-02-04T12:33:26;5.47;;;3.55;;
43793;SDS011;29414;44.798;20.366;2023-02-04T12:37:27;4.27;;;3.20;;
43793;SDS011;29414;44.798;20.366;2023-02-04T12:41:27;3.45;;;2.65;;
43793;SDS011;29414;44.798;20.366;2023-02-04T12:45:27;4.03;;;2.70;;
43793;SDS011;29414;44.798;20.366;2023-02-04T12:49:28;4.03;;;3.23;;
43793;SDS011;29414;44.798;20.366;2023-02-04T12:53:28;5.00;;;2.90;;
43793;SDS011;29414;44.798;20.366;2023-02-04T12:57:28;3.90;;;3.47;;
43793;SDS011;29414;44.798;20.366;2023-02-04T13:01:28;3.67;;;3.35;;
43793;SDS011;29414;44.798;20.366;2023-02-04T13:05:28;4.85;;;3.30;;
43793;SDS011;29414;44.798;20.366;2023-02-04T13:09:29;3.92;;;3.28;;
43793;SDS011;29414;44.798;20.366;2023-02-04T13:13:29;6.85;;;4.18;;
43793;SDS011;29414;44.798;20.366;2023-02-04T13:17:29;5.00;;;4.37;;
43793;SDS011;29414;44.798;20.366;2023-02-04T13:21:29;4.37;;;3.67;;
43793;SDS011;29414;44.798;20.366;2023-02-04T13:25:30;6.33;;;4.27;;
43793;SDS011;29414;44.798;20.366;2023-02-04T13:29:30;6.30;;;4.60;;
43793;SDS011;29414;44.798;20.366;2023-02-04T13:33:30;4.00;;;3.22;;
43793;SDS011;29414;44.798;20.366;2023-02-04T13:37:30;3.65;;;3.33;;
43793;SDS011;29414;44.798;20.366;2023-02-04T13:41:31;4.15;;;3.38;;
43793;SDS011;29414;44.798;20.366;2023-02-04T13:45:31;4.03;;;3.47;;
43793;SDS011;29414;44.798;20.366;2023-02-04T13:49:32;3.53;;;3.10;;
43793;SDS011;29414;44.798;20.366;2023-02-04T13:53:32;3.93;;;2.63;;
43793;SDS011;29414;44.798;20.366;2023-02-04T13:57:32;2.60;;;2.27;;
43793;SDS011;29414;44.798;20.366;2023-02-04T14:01:33;3.50;;;2.30;;
43793;SDS011;29414;44.798;20.366;2023-02-04T14:05:33;3.25;;;2.95;;
43793;SDS011;29414;44.798;20.366;2023-02-04T14:09:33;4.55;;;2.15;;
43793;SDS011;29414;44.798;20.366;2023-02-04T14:13:33;4.30;;;2.67;;
43793;SDS011;29414;44.798;20.366;2023-02-04T14:17:34;4.75;;;2.90;;
43793;SDS011;29414;44.798;20.366;2023-02-04T14:21:34;4.53;;;3.03;;
43793;SDS011;29414;44.798;20.366;2023-02-04T14:25:34;4.28;;;3.75;;
43793;SDS011;29414;44.798;20.366;2023-02-04T14:29:34;4.17;;;3.50;;
43793;SDS011;29414;44.798;20.366;2023-02-04T14:33:35;4.53;;;3.60;;
43793;SDS011;29414;44.798;20.366;2023-02-04T14:37:35;5.20;;;3.35;;
43793;SDS011;29414;44.798;20.366;2023-02-04T14:41:35;3.03;;;2.72;;
43793;SDS011;29414;44.798;20.366;2023-02-04T14:45:36;2.58;;;2.20;;
43793;SDS011;29414;44.798;20.366;2023-02-04T14:49:36;2.70;;;2.23;;
43793;SDS011;29414;44.798;20.366;2023-02-04T14:53:37;2.60;;;1.80;;
43793;SDS011;29414;44.798;20.366;2023-02-04T14:57:37;3.67;;;1.92;;
43793;SDS011;29414;44.798;20.366;2023-02-04T15:01:37;2.40;;;1.70;;
43793;SDS011;29414;44.798;20.366;2023-02-04T15:05:37;2.00;;;1.67;;
43793;SDS011;29414;44.798;20.366;2023-02-04T15:09:38;2.72;;;1.73;;
43793;SDS011;29414;44.798;20.366;2023-02-04T15:13:38;3.47;;;2.07;;
43793;SDS011;29414;44.798;20.366;2023-02-04T15:17:38;3.90;;;1.95;;
43793;SDS011;29414;44.798;20.366;2023-02-04T15:21:38;2.33;;;1.47;;
43793;SDS011;29414;44.798;20.366;2023-02-04T15:25:39;1.98;;;1.55;;
43793;SDS011;29414;44.798;20.366;2023-02-04T15:29:42;1.53;;;1.43;;
43793;SDS011;29414;44.798;20.366;2023-02-04T15:33:42;3.33;;;2.00;;
43793;SDS011;29414;44.798;20.366;2023-02-04T15:37:43;7.07;;;2.10;;
43793;SDS011;29414;44.798;20.366;2023-02-04T15:41:43;3.35;;;1.90;;
43793;SDS011;29414;44.798;20.366;2023-02-04T15:45:43;4.15;;;2.65;;
43793;SDS011;29414;44.798;20.366;2023-02-04T15:49:43;3.88;;;2.45;;
43793;SDS011;29414;44.798;20.366;2023-02-04T15:53:43;2.42;;;2.03;;
43793;SDS011;29414;44.798;20.366;2023-02-04T15:57:44;2.10;;;1.70;;
43793;SDS011;29414;44.798;20.366;2023-02-04T16:01:44;2.13;;;1.77;;
43793;SDS011;29414;44.798;20.366;2023-02-04T16:05:44;2.78;;;2.00;;
43793;SDS011;29414;44.798;20.366;2023-02-04T16:09:44;4.25;;;2.35;;
43793;SDS011;29414;44.798;20.366;2023-02-04T16:13:45;2.17;;;1.60;;
43793;SDS011;29414;44.798;20.366;2023-02-04T16:17:45;2.73;;;2.07;;
43793;SDS011;29414;44.798;20.366;2023-02-04T16:21:46;3.10;;;2.17;;
43793;SDS011;29414;44.798;20.366;2023-02-04T16:25:46;3.17;;;2.20;;
43793;SDS011;29414;44.798;20.366;2023-02-04T16:29:47;6.60;;;4.50;;
43793;SDS011;29414;44.798;20.366;2023-02-04T16:33:47;3.80;;;2.17;;
43793;SDS011;29414;44.798;20.366;2023-02-04T16:37:47;3.87;;;2.23;;
43793;SDS011;29414;44.798;20.366;2023-02-04T16:41:47;2.37;;;1.63;;
43793;SDS011;29414;44.798;20.366;2023-02-04T16:45:48;2.92;;;1.58;;
43793;SDS011;29414;44.798;20.366;2023-02-04T16:49:48;2.77;;;1.70;;
43793;SDS011;29414;44.798;20.366;2023-02-04T16:53:50;4.40;;;1.63;;
43793;SDS011;29414;44.798;20.366;2023-02-04T16:57:50;2.83;;;1.63;;
43793;SDS011;29414;44.798;20.366;2023-02-04T17:01:50;3.07;;;1.73;;
43793;SDS011;29414;44.798;20.366;2023-02-04T17:05:51;3.85;;;2.33;;
43793;SDS011;29414;44.798;20.366;2023-02-04T17:09:51;2.87;;;1.87;;
43793;SDS011;29414;44.798;20.366;2023-02-04T17:13:51;3.85;;;2.22;;
43793;SDS011;29414;44.798;20.366;2023-02-04T17:17:51;4.30;;;1.60;;
43793;SDS011;29414;44.798;20.366;2023-02-04T17:21:51;3.53;;;2.20;;
43793;SDS011;29414;44.798;20.366;2023-02-04T17:25:53;3.50;;;2.30;;
43793;SDS011;29414;44.798;20.366;2023-02-04T17:29:53;3.87;;;2.33;;
43793;SDS011;29414;44.798;20.366;2023-02-04T17:33:53;4.63;;;2.60;;
43793;SDS011;29414;44.798;20.366;2023-02-04T17:37:53;3.78;;;1.75;;
43793;SDS011;29414;44.798;20.366;2023-02-04T17:41:54;3.15;;;1.83;;
43793;SDS011;29414;44.798;20.366;2023-02-04T17:45:54;2.83;;;1.88;;
43793;SDS011;29414;44.798;20.366;2023-02-04T17:49:54;2.17;;;1.80;;
43793;SDS011;29414;44.798;20.366;2023-02-04T17:53:55;3.10;;;2.10;;
43793;SDS011;29414;44.798;20.366;2023-02-04T17:57:57;2.55;;;2.08;;
43793;SDS011;29414;44.798;20.366;2023-02-04T18:01:58;4.47;;;1.83;;
43793;SDS011;29414;44.798;20.366;2023-02-04T18:05:58;4.72;;;2.33;;
43793;SDS011;29414;44.798;20.366;2023-02-04T18:10:20;6.40;;;2.87;;
43793;SDS011;29414;44.798;20.366;2023-02-04T18:14:20;3.70;;;2.67;;
43793;SDS011;29414;44.798;20.366;2023-02-04T18:22:22;2.67;;;2.10;;
43793;SDS011;29414;44.798;20.366;2023-02-04T18:26:24;3.07;;;1.90;;
43793;SDS011;29414;44.798;20.366;2023-02-04T18:30:25;4.10;;;2.83;;
43793;SDS011;29414;44.798;20.366;2023-02-04T18:34:48;4.93;;;2.40;;
43793;SDS011;29414;44.798;20.366;2023-02-04T18:38:47;3.93;;;2.63;;
43793;SDS011;29414;44.798;20.366;2023-02-04T18:42:48;4.03;;;2.83;;
43793;SDS011;29414;44.798;20.366;2023-02-04T18:46:48;4.53;;;2.70;;
43793;SDS011;29414;44.798;20.366;2023-02-04T18:50:49;8.82;;;3.75;;
43793;SDS011;29414;44.798;20.366;2023-02-04T18:54:51;5.43;;;3.17;;
43793;SDS011;29414;44.798;20.366;2023-02-04T18:58:51;4.20;;;2.83;;
43793;SDS011;29414;44.798;20.366;2023-02-04T19:02:53;3.13;;;2.50;;
43793;SDS011;29414;44.798;20.366;2023-02-04T19:06:53;4.83;;;3.20;;
43793;SDS011;29414;44.798;20.366;2023-02-04T19:10:55;5.37;;;2.93;;
43793;SDS011;29414;44.798;20.366;2023-02-04T19:14:55;3.83;;;2.50;;
43793;SDS011;29414;44.798;20.366;2023-02-04T19:18:55;4.23;;;2.70;;
43793;SDS011;29414;44.798;20.366;2023-02-04T19:22:56;4.93;;;2.93;;
43793;SDS011;29414;44.798;20.366;2023-02-04T19:27:00;4.77;;;2.77;;
43793;SDS011;29414;44.798;20.366;2023-02-04T19:31:06;4.93;;;2.63;;
43793;SDS011;29414;44.798;20.366;2023-02-04T19:35:11;4.07;;;2.50;;
43793;SDS011;29414;44.798;20.366;2023-02-04T19:39:26;4.07;;;2.20;;
43793;SDS011;29414;44.798;20.366;2023-02-04T19:43:34;4.80;;;2.13;;
43793;SDS011;29414;44.798;20.366;2023-02-04T19:47:41;3.43;;;2.43;;
43793;SDS011;29414;44.798;20.366;2023-02-04T19:51:42;5.07;;;3.63;;
43793;SDS011;29414;44.798;20.366;2023-02-04T19:55:45;4.20;;;2.73;;
43793;SDS011;29414;44.798;20.366;2023-02-04T19:59:46;3.83;;;2.27;;
43793;SDS011;29414;44.798;20.366;2023-02-04T20:03:46;4.85;;;2.70;;
43793;SDS011;29414;44.798;20.366;2023-02-04T20:07:47;11.03;;;3.87;;
43793;SDS011;29414;44.798;20.366;2023-02-04T20:12:29;4.60;;;3.25;;
43793;SDS011;29414;44.798;20.366;2023-02-04T20:20:30;3.43;;;2.50;;
43793;SDS011;29414;44.798;20.366;2023-02-04T20:24:35;4.60;;;2.87;;
43793;SDS011;29414;44.798;20.366;2023-02-04T20:32:36;4.90;;;2.17;;
43793;SDS011;29414;44.798;20.366;2023-02-04T20:36:38;3.37;;;2.47;;
43793;SDS011;29414;44.798;20.366;2023-02-04T20:40:41;9.77;;;3.17;;
43793;SDS011;29414;44.798;20.366;2023-02-04T20:44:41;4.60;;;2.30;;
43793;SDS011;29414;44.798;20.366;2023-02-04T20:48:41;2.90;;;2.13;;
43793;SDS011;29414;44.798;20.366;2023-02-04T20:56:44;2.37;;;1.67;;
43793;SDS011;29414;44.798;20.366;2023-02-04T21:00:45;3.53;;;1.70;;
43793;SDS011;29414;44.798;20.366;2023-02-04T21:04:47;4.60;;;2.40;;
43793;SDS011;29414;44.798;20.366;2023-02-04T21:08:53;1.97;;;1.30;;
43793;SDS011;29414;44.798;20.366;2023-02-04T21:12:54;2.90;;;1.77;;
43793;SDS011;29414;44.798;20.366;2023-02-04T21:16:58;4.23;;;2.33;;
43793;SDS011;29414;44.798;20.366;2023-02-04T21:20:58;4.53;;;2.17;;
43793;SDS011;29414;44.798;20.366;2023-02-04T21:24:59;2.33;;;2.00;;
43793;SDS011;29414;44.798;20.366;2023-02-04T21:28:59;2.80;;;2.03;;
43793;SDS011;29414;44.798;20.366;2023-02-04T21:32:59;2.60;;;1.95;;
43793;SDS011;29414;44.798;20.366;2023-02-04T21:37:00;4.70;;;1.93;;
43793;SDS011;29414;44.798;20.366;2023-02-04T21:41:01;1.73;;;1.10;;
43793;SDS011;29414;44.798;20.366;2023-02-04T21:45:01;3.33;;;1.70;;
43793;SDS011;29414;44.798;20.366;2023-02-04T21:49:02;2.73;;;1.77;;
43793;SDS011;29414;44.798;20.366;2023-02-04T21:53:04;3.07;;;1.57;;
43793;SDS011;29414;44.798;20.366;2023-02-04T21:57:04;2.17;;;1.87;;
43793;SDS011;29414;44.798;20.366;2023-02-04T22:01:05;3.97;;;1.77;;
43793;SDS011;29414;44.798;20.366;2023-02-04T22:05:06;2.13;;;1.50;;
43793;SDS011;29414;44.798;20.366;2023-02-04T22:09:06;4.07;;;1.77;;
43793;SDS011;29414;44.798;20.366;2023-02-04T22:13:06;3.20;;;2.05;;
43793;SDS011;29414;44.798;20.366;2023-02-04T22:17:07;2.80;;;1.75;;
43793;SDS011;29414;44.798;20.366;2023-02-04T22:21:07;3.63;;;2.53;;
43793;SDS011;29414;44.798;20.366;2023-02-04T22:25:07;4.25;;;2.80;;
43793;SDS011;29414;44.798;20.366;2023-02-04T22:29:07;3.70;;;2.20;;
43793;SDS011;29414;44.798;20.366;2023-02-04T22:33:08;3.15;;;2.20;;
43793;SDS011;29414;44.798;20.366;2023-02-04T22:37:10;5.37;;;2.17;;
43793;SDS011;29414;44.798;20.366;2023-02-04T22:41:10;6.38;;;2.60;;
43793;SDS011;29414;44.798;20.366;2023-02-04T22:45:10;3.88;;;2.35;;
43793;SDS011;29414;44.798;20.366;2023-02-04T22:49:13;5.20;;;2.63;;
43793;SDS011;29414;44.798;20.366;2023-02-04T22:53:13;4.37;;;2.47;;
43793;SDS011;29414;44.798;20.366;2023-02-04T22:57:13;3.10;;;2.10;;
43793;SDS011;29414;44.798;20.366;2023-02-04T23:01:13;3.15;;;2.22;;
43793;SDS011;29414;44.798;20.366;2023-02-04T23:05:14;3.83;;;2.47;;
43793;SDS011;29414;44.798;20.366;2023-02-04T23:09:14;3.10;;;1.77;;
43793;SDS011;29414;44.798;20.366;2023-02-04T23:13:15;3.47;;;1.97;;
43793;SDS011;29414;44.798;20.366;2023-02-04T23:17:16;1.97;;;1.33;;
43793;SDS011;29414;44.798;20.366;2023-02-04T23:21:16;2.83;;;1.63;;
43793;SDS011;29414;44.798;20.366;2023-02-04T23:25:16;3.97;;;1.57;;
43793;SDS011;29414;44.798;20.366;2023-02-04T23:29:17;3.53;;;1.70;;
43793;SDS011;29414;44.798;20.366;2023-02-04T23:33:17;2.97;;;1.60;;
43793;SDS011;29414;44.798;20.366;2023-02-04T23:37:17;4.25;;;1.60;;
43793;SDS011;29414;44.798;20.366;2023-02-04T23:41:17;2.70;;;1.93;;
43793;SDS011;29414;44.798;20.366;2023-02-04T23:45:18;3.07;;;2.10;;
43793;SDS011;29414;44.798;20.366;2023-02-04T23:49:18;3.30;;;2.33;;
43793;SDS011;29414;44.798;20.366;2023-02-04T23:53:19;3.13;;;2.03;;
43793;SDS011;29414;44.798;20.366;2023-02-04T23:57:19;3.40;;;2.37;;
